Madison, SD

4:51 PM CDT on August 23, 2017 (GMT -0500)
Madison Municipal

Weather History for KMDS - May, 2013

Change the Weather History Date:

Monday, May 27, 2013

  Actual Average Record
Temperature  
Mean Temperature 58 °F -  
Max Temperature 66 °F 71 °F 84 °F (2014)
Min Temperature 51 °F 51 °F 48 °F (2011)
Degree Days  
Heating Degree Days 6    
Growing Degree Days 8 (Base 50)    
Moisture  
Dew Point 57 °F    
Average Humidity 100    
Maximum Humidity 100    
Minimum Humidity 100    
Precipitation  
Precipitation 0.01 in - - ()
Sea Level Pressure  
Sea Level Pressure 29.82 in    
Wind  
Wind Speed 15 mph (ESE)    
Max Wind Speed 28 mph    
Max Gust Speed 32 mph    
Visibility 8 miles    
Events Rain , Thunderstorm    
Averages and records for this station are not official NWS values.
T = Trace of Precipitation, MM = Missing Value Source: NWS Daily Summary

Daily Weather History Graph

Daily Weather History Graph

Search for Another Location

Airport or City:

Trip Planner

Search our weather history database for the weather conditions in past years. The results will help you decide how hot, cold, wet, or windy it might be!

Date:

Astronomy

May. 27, 2013 Rise Set
Actual Time 5:51 AM CDT 9:00 PM CDT
Civil Twilight 5:16 AM CDT 9:35 PM CDT
Nautical Twilight 4:31 AM CDT 10:20 PM CDT
Astronomical Twilight 3:37 AM CDT 11:15 PM CDT
Moon 11:37 PM CDT (5/27) 8:31 AM CDT (5/27)
Length of Visible Light 16h 18m
Length of Day
15h 09m
Waning Gibbous, 91% of the Moon is Illuminated
May 27
Waning Gibbous
May 31
Last Quarter
Jun 8
New
Jun 16
First Quarter
Jun 23
Full

Hourly Weather History & Observations

Time (CDT) Temp. Dew Point Humidity Pressure Visibility Wind Dir Wind Speed Gust Speed Precip Events Conditions
12:15 AM 51.8 °F 51.8 °F 100% 29.91 in 2.5 mi ESE 16.1 mph 21.9 mph N/A Rain , Thunderstorm Light Rain
12:35 AM 51.8 °F 51.8 °F 100% 29.93 in 4.0 mi ESE 15.0 mph - N/A Rain , Thunderstorm Light Rain
12:55 AM 51.8 °F 51.8 °F 100% 29.94 in 3.0 mi ESE 11.5 mph - 0.01 in Rain , Thunderstorm Light Thunderstorms and Rain
1:15 AM 51.8 °F 51.8 °F 100% 29.93 in 3.0 mi SE 27.6 mph 32.2 mph N/A Thunderstorm Overcast
1:35 AM 51.8 °F 51.8 °F 100% 29.87 in 9.0 mi SE 26.5 mph 31.1 mph N/A Thunderstorm Thunderstorm
1:40 AM 51.8 °F 51.8 °F 100% 29.85 in 9.0 mi SE 23.0 mph 31.1 mph N/A Thunderstorm Thunderstorm
4:25 AM 53.6 °F 53.6 °F 100% 29.91 in - East 9.2 mph - N/A   Unknown
4:30 AM 53.6 °F 53.6 °F 100% 29.91 in 10.0 mi East 11.5 mph - N/A   Unknown
4:35 AM 53.6 °F 53.6 °F 100% 29.90 in 10.0 mi East 12.7 mph - N/A   Unknown
5:10 AM 53.6 °F 53.6 °F 100% 29.82 in 10.0 mi East 25.3 mph - N/A   Mostly Cloudy
5:35 AM 51.8 °F 51.8 °F 100% 29.82 in 10.0 mi East 15.0 mph 29.9 mph N/A   Overcast
5:50 AM 51.8 °F 51.8 °F 100% 29.81 in 6.0 mi East 20.7 mph - N/A   Overcast
6:15 AM 51.8 °F 51.8 °F 100% 29.80 in 1.8 mi East 15.0 mph 21.9 mph N/A   Overcast
6:30 AM 51.8 °F 51.8 °F 100% 29.80 in 1.2 mi East 10.4 mph - N/A   Overcast
6:55 AM 53.6 °F 53.6 °F 100% 29.84 in 0.8 mi ENE 3.5 mph - N/A   Overcast
7:10 AM 53.6 °F 53.6 °F 100% 29.84 in 1.5 mi NE 8.1 mph - N/A   Overcast
7:30 AM 53.6 °F 53.6 °F 100% 29.83 in 1.2 mi NNE 9.2 mph - N/A   Overcast
7:50 AM 53.6 °F 53.6 °F 100% 29.83 in 0.8 mi NNE 8.1 mph - N/A   Overcast
8:10 AM 55.4 °F 55.4 °F 100% 29.85 in 5.0 mi NNE 6.9 mph - N/A   Overcast
8:30 AM 55.4 °F 55.4 °F 100% 29.86 in 10.0 mi NNE 8.1 mph - N/A   Overcast
8:50 AM 55.4 °F 55.4 °F 100% 29.88 in 10.0 mi ENE 12.7 mph - N/A   Overcast
9:10 AM 57.2 °F 57.2 °F 100% 29.87 in 10.0 mi ENE 18.4 mph 24.2 mph N/A   Overcast
9:30 AM 55.4 °F 55.4 °F 100% 29.86 in 0.8 mi ENE 17.3 mph - N/A   Overcast
9:55 AM 55.4 °F 55.4 °F 100% 29.85 in 10.0 mi East 16.1 mph - N/A   Overcast
10:10 AM 57.2 °F 57.2 °F 100% 29.83 in 10.0 mi East 18.4 mph - N/A   Overcast
10:35 AM 55.4 °F 55.4 °F 100% 29.82 in 10.0 mi East 15.0 mph - N/A   Overcast
10:50 AM 55.4 °F 55.4 °F 100% 29.82 in 10.0 mi East 18.4 mph - N/A   Overcast
11:15 AM 57.2 °F 57.2 °F 100% 29.82 in 10.0 mi East 19.6 mph - N/A   Overcast
11:30 AM 57.2 °F 57.2 °F 100% 29.82 in 10.0 mi East 17.3 mph - N/A   Overcast
11:55 AM 57.2 °F 57.2 °F 100% 29.84 in 10.0 mi East 16.1 mph 21.9 mph N/A   Overcast
12:10 PM 57.2 °F 57.2 °F 100% 29.84 in 10.0 mi East 16.1 mph - N/A   Overcast
12:30 PM 57.2 °F 57.2 °F 100% 29.84 in 10.0 mi ESE 12.7 mph - N/A   Overcast
12:55 PM 60.8 °F 60.8 °F 100% 29.86 in 10.0 mi ESE 4.6 mph - N/A   Mostly Cloudy
1:10 PM 60.8 °F 60.8 °F 100% 29.85 in 10.0 mi South 10.4 mph - N/A   Overcast
1:35 PM 62.6 °F 62.6 °F 100% 29.84 in 10.0 mi SSE 10.4 mph - N/A   Overcast
1:50 PM 64.4 °F 64.4 °F 100% 29.84 in 10.0 mi SSE 12.7 mph - N/A   Mostly Cloudy
2:15 PM 64.4 °F 64.4 °F 100% 29.83 in 10.0 mi SSE 11.5 mph - N/A   Scattered Clouds
2:30 PM 64.4 °F 64.4 °F 100% 29.83 in 10.0 mi SSE 11.5 mph - N/A   Scattered Clouds
2:50 PM 64.4 °F 64.4 °F 100% 29.82 in 10.0 mi SSE 10.4 mph - N/A   Mostly Cloudy
3:10 PM 64.4 °F 64.4 °F 100% 29.82 in 10.0 mi South 10.4 mph - N/A   Mostly Cloudy
3:30 PM 66.2 °F 66.2 °F 100% 29.82 in 10.0 mi SSW 6.9 mph - N/A   Scattered Clouds
3:50 PM 64.4 °F 64.4 °F 100% 29.81 in 10.0 mi SSW 9.2 mph - N/A   Overcast
4:10 PM 64.4 °F 64.4 °F 100% 29.80 in 10.0 mi SSW 8.1 mph - N/A   Overcast
4:30 PM 64.4 °F 64.4 °F 100% 29.79 in 10.0 mi South 5.8 mph - N/A   Overcast
4:50 PM 64.4 °F 64.4 °F 100% 29.79 in 10.0 mi SSW 8.1 mph - N/A   Overcast
5:15 PM 62.6 °F 62.6 °F 100% 29.79 in 10.0 mi SW 5.8 mph - N/A   Overcast
5:30 PM 62.6 °F 62.6 °F 100% 29.80 in 10.0 mi South 5.8 mph - N/A   Overcast
5:55 PM 64.4 °F 64.4 °F 100% 29.80 in 10.0 mi SE 9.2 mph - N/A   Overcast
6:10 PM 62.6 °F 62.6 °F 100% 29.80 in 10.0 mi SE 9.2 mph - N/A   Overcast
6:30 PM 64.4 °F 64.4 °F 100% 29.79 in 10.0 mi East 5.8 mph - N/A   Mostly Cloudy
6:50 PM 62.6 °F 62.6 °F 100% 29.79 in 10.0 mi East 13.8 mph - N/A   Mostly Cloudy
7:10 PM 60.8 °F 60.8 °F 100% 29.78 in 10.0 mi East 17.3 mph - N/A   Overcast
7:30 PM 59.0 °F 59.0 °F 100% 29.77 in 10.0 mi East 16.1 mph - N/A   Overcast
7:50 PM 59.0 °F 59.0 °F 100% 29.76 in 10.0 mi East 18.4 mph 23.0 mph N/A   Overcast
8:10 PM 57.2 °F 57.2 °F 100% 29.76 in 10.0 mi East 19.6 mph - N/A   Overcast
8:30 PM 57.2 °F 57.2 °F 100% 29.76 in 10.0 mi East 18.4 mph 24.2 mph N/A   Overcast
8:50 PM 57.2 °F 57.2 °F 100% 29.77 in 10.0 mi East 17.3 mph - N/A   Overcast
9:10 PM 57.2 °F 57.2 °F 100% 29.78 in 10.0 mi ESE 13.8 mph - N/A   Overcast
9:30 PM 55.4 °F 55.4 °F 100% 29.78 in 10.0 mi East 17.3 mph - N/A   Overcast
9:50 PM 55.4 °F 55.4 °F 100% 29.77 in 10.0 mi East 18.4 mph - N/A   Overcast
10:15 PM 55.4 °F 55.4 °F 100% 29.77 in 10.0 mi East 20.7 mph 26.5 mph N/A   Overcast
10:30 PM 55.4 °F 55.4 °F 100% 29.76 in 10.0 mi East 23.0 mph 26.5 mph N/A   Overcast
10:55 PM 55.4 °F 55.4 °F 100% 29.75 in 10.0 mi East 20.7 mph 28.8 mph N/A   Overcast
11:10 PM 55.4 °F 55.4 °F 100% 29.75 in 10.0 mi ESE 13.8 mph 24.2 mph N/A   Overcast
11:30 PM 55.4 °F 55.4 °F 100% 29.74 in 10.0 mi ESE 16.1 mph 19.6 mph N/A   Overcast
11:50 PM 55.4 °F 55.4 °F 100% 29.75 in 10.0 mi East 16.1 mph - N/A   Overcast